sensor_id;sensor_type;location;lat;lon;timestamp;pressure;altitude;pressure_sealevel;temperature;humidity
12358;BME280;6243;51.244;6.774;2023-04-25T00:00:39;151952.47;;;17.79;50.70
12358;BME280;6243;51.244;6.774;2023-04-25T00:03:06;152024.09;;;18.07;50.36
12358;BME280;6243;51.244;6.774;2023-04-25T00:05:32;151944.78;;;17.76;50.96
12358;BME280;6243;51.244;6.774;2023-04-25T00:07:57;151877.00;;;17.49;51.66
12358;BME280;6243;51.244;6.774;2023-04-25T00:10:23;152075.22;;;18.27;49.77
12358;BME280;6243;51.244;6.774;2023-04-25T00:12:49;151990.81;;;17.94;50.71
12358;BME280;6243;51.244;6.774;2023-04-25T00:15:14;152018.97;;;18.05;50.41
12358;BME280;6243;51.244;6.774;2023-04-25T00:17:40;152021.50;;;18.06;50.39
12358;BME280;6243;51.244;6.774;2023-04-25T00:20:08;152050.94;;;18.17;50.41
12358;BME280;6243;51.244;6.774;2023-04-25T00:22:34;152050.94;;;18.17;50.40
12358;BME280;6243;51.244;6.774;2023-04-25T00:24:59;151979.31;;;17.89;50.96
12358;BME280;6243;51.244;6.774;2023-04-25T00:27:25;152006.19;;;18.00;50.73
12358;BME280;6243;51.244;6.774;2023-04-25T00:29:51;152121.31;;;18.45;49.79
12358;BME280;6243;51.244;6.774;2023-04-25T00:32:16;151907.75;;;17.61;51.02
12358;BME280;6243;51.244;6.774;2023-04-25T00:34:42;152065.00;;;18.23;50.35
12358;BME280;6243;51.244;6.774;2023-04-25T00:37:09;152024.09;;;18.07;50.42
12358;BME280;6243;51.244;6.774;2023-04-25T00:39:34;152042.00;;;18.14;50.52
12358;BME280;6243;51.244;6.774;2023-04-25T00:42:00;152024.09;;;18.07;50.79
12358;BME280;6243;51.244;6.774;2023-04-25T00:44:26;152049.63;;;18.17;50.51
12358;BME280;6243;51.244;6.774;2023-04-25T00:46:54;152068.84;;;18.24;50.25
12358;BME280;6243;51.244;6.774;2023-04-25T00:49:19;152036.84;;;18.12;50.66
12358;BME280;6243;51.244;6.774;2023-04-25T00:51:45;152066.25;;;18.23;50.51
12358;BME280;6243;51.244;6.774;2023-04-25T00:54:12;152062.44;;;18.22;50.75
12358;BME280;6243;51.244;6.774;2023-04-25T00:56:39;152103.34;;;18.38;50.44
12358;BME280;6243;51.244;6.774;2023-04-25T00:59:04;152103.34;;;18.38;50.44
12358;BME280;6243;51.244;6.774;2023-04-25T01:01:30;152084.16;;;18.30;50.93
12358;BME280;6243;51.244;6.774;2023-04-25T01:03:58;152113.56;;;18.42;50.13
12358;BME280;6243;51.244;6.774;2023-04-25T01:06:23;152108.47;;;18.40;50.18
12358;BME280;6243;51.244;6.774;2023-04-25T01:08:49;152042.00;;;18.14;50.85
12358;BME280;6243;51.244;6.774;2023-04-25T01:11:16;152163.53;;;18.62;49.72
12358;BME280;6243;51.244;6.774;2023-04-25T01:13:41;152129.00;;;18.48;49.95
12358;BME280;6243;51.244;6.774;2023-04-25T01:16:07;152125.13;;;18.47;50.09
12358;BME280;6243;51.244;6.774;2023-04-25T01:18:33;152012.59;;;18.02;50.94
12358;BME280;6243;51.244;6.774;2023-04-25T01:21:06;152088.03;;;18.32;50.45
12358;BME280;6243;51.244;6.774;2023-04-25T01:23:32;152098.25;;;18.36;50.35
12358;BME280;6243;51.244;6.774;2023-04-25T01:25:58;152052.22;;;18.18;50.93
12358;BME280;6243;51.244;6.774;2023-04-25T01:28:24;152089.28;;;18.32;50.36
12358;BME280;6243;51.244;6.774;2023-04-25T01:30:50;152031.72;;;18.10;50.94
12358;BME280;6243;51.244;6.774;2023-04-25T01:33:17;152021.50;;;18.06;50.93
12358;BME280;6243;51.244;6.774;2023-04-25T01:35:44;152031.72;;;18.10;51.00
12358;BME280;6243;51.244;6.774;2023-04-25T01:38:11;152030.50;;;18.09;50.84
12358;BME280;6243;51.244;6.774;2023-04-25T01:40:39;152042.00;;;18.14;50.92
12358;BME280;6243;51.244;6.774;2023-04-25T01:43:05;152012.59;;;18.02;51.17
12358;BME280;6243;51.244;6.774;2023-04-25T01:45:31;152011.28;;;18.02;51.09
12358;BME280;6243;51.244;6.774;2023-04-25T01:47:56;152002.31;;;17.98;51.16
12358;BME280;6243;51.244;6.774;2023-04-25T01:50:23;151995.91;;;17.96;51.25
12358;BME280;6243;51.244;6.774;2023-04-25T01:52:48;152008.72;;;18.01;51.08
12358;BME280;6243;51.244;6.774;2023-04-25T01:55:15;152006.19;;;18.00;50.97
12358;BME280;6243;51.244;6.774;2023-04-25T01:57:41;151998.50;;;17.97;50.97
12358;BME280;6243;51.244;6.774;2023-04-25T02:00:07;152017.69;;;18.04;51.23
12358;BME280;6243;51.244;6.774;2023-04-25T02:02:33;152001.06;;;17.98;51.13
12358;BME280;6243;51.244;6.774;2023-04-25T02:04:58;152022.81;;;18.06;51.00
12358;BME280;6243;51.244;6.774;2023-04-25T02:07:24;151978.06;;;17.89;51.13
12358;BME280;6243;51.244;6.774;2023-04-25T02:09:49;152038.13;;;18.12;50.90
12358;BME280;6243;51.244;6.774;2023-04-25T02:12:16;152084.16;;;18.30;50.48
12358;BME280;6243;51.244;6.774;2023-04-25T02:14:42;152047.09;;;18.16;50.76
12358;BME280;6243;51.244;6.774;2023-04-25T02:17:07;151983.19;;;17.91;50.98
12358;BME280;6243;51.244;6.774;2023-04-25T02:19:33;152027.91;;;18.08;50.56
12358;BME280;6243;51.244;6.774;2023-04-25T02:21:58;152013.81;;;18.03;50.83
12358;BME280;6243;51.244;6.774;2023-04-25T02:24:24;152054.75;;;18.19;50.60
12358;BME280;6243;51.244;6.774;2023-04-25T02:26:49;152049.63;;;18.17;50.66
12358;BME280;6243;51.244;6.774;2023-04-25T02:29:16;152063.72;;;18.22;50.42
12358;BME280;6243;51.244;6.774;2023-04-25T02:31:42;152018.97;;;18.05;50.81
12358;BME280;6243;51.244;6.774;2023-04-25T02:34:07;151990.81;;;17.94;50.85
12358;BME280;6243;51.244;6.774;2023-04-25T02:36:33;152039.41;;;18.13;50.53
12358;BME280;6243;51.244;6.774;2023-04-25T02:38:58;151939.69;;;17.73;51.04
12358;BME280;6243;51.244;6.774;2023-04-25T02:41:24;151972.91;;;17.87;51.20
12358;BME280;6243;51.244;6.774;2023-04-25T02:43:49;151952.47;;;17.79;51.21
12358;BME280;6243;51.244;6.774;2023-04-25T02:46:16;151983.19;;;17.91;51.03
12358;BME280;6243;51.244;6.774;2023-04-25T02:48:42;151970.38;;;17.86;51.04
12358;BME280;6243;51.244;6.774;2023-04-25T02:51:07;151960.16;;;17.82;51.23
12358;BME280;6243;51.244;6.774;2023-04-25T02:53:33;151942.25;;;17.75;51.83
12358;BME280;6243;51.244;6.774;2023-04-25T02:55:58;152022.81;;;18.06;50.85
12358;BME280;6243;51.244;6.774;2023-04-25T02:58:24;152016.41;;;18.04;51.08
12358;BME280;6243;51.244;6.774;2023-04-25T03:00:49;151995.91;;;17.96;51.33
12358;BME280;6243;51.244;6.774;2023-04-25T03:03:16;152008.72;;;18.01;50.91
12358;BME280;6243;51.244;6.774;2023-04-25T03:05:42;151897.50;;;17.57;51.64
12358;BME280;6243;51.244;6.774;2023-04-25T03:08:08;152012.59;;;18.02;51.19
12358;BME280;6243;51.244;6.774;2023-04-25T03:10:33;151988.28;;;17.93;51.37
12358;BME280;6243;51.244;6.774;2023-04-25T03:12:59;152006.19;;;18.00;51.22
12358;BME280;6243;51.244;6.774;2023-04-25T03:15:24;151955.06;;;17.80;51.47
12358;BME280;6243;51.244;6.774;2023-04-25T03:17:50;151809.31;;;17.22;52.53
12358;BME280;6243;51.244;6.774;2023-04-25T03:20:17;151935.88;;;17.72;51.76
12358;BME280;6243;51.244;6.774;2023-04-25T03:22:42;151753.03;;;17.00;52.82
12358;BME280;6243;51.244;6.774;2023-04-25T03:25:08;151851.44;;;17.39;52.38
12358;BME280;6243;51.244;6.774;2023-04-25T03:27:33;151870.63;;;17.46;52.12
12358;BME280;6243;51.244;6.774;2023-04-25T03:29:59;151862.94;;;17.43;52.33
12358;BME280;6243;51.244;6.774;2023-04-25T03:32:25;151896.25;;;17.56;51.98
12358;BME280;6243;51.244;6.774;2023-04-25T03:34:50;151819.50;;;17.26;52.75
12358;BME280;6243;51.244;6.774;2023-04-25T03:37:17;151857.81;;;17.41;52.75
12358;BME280;6243;51.244;6.774;2023-04-25T03:39:43;151903.88;;;17.59;52.26
12358;BME280;6243;51.244;6.774;2023-04-25T03:42:08;151860.41;;;17.42;52.61
12358;BME280;6243;51.244;6.774;2023-04-25T03:44:33;151900.06;;;17.58;52.11
12358;BME280;6243;51.244;6.774;2023-04-25T03:46:59;151914.16;;;17.63;51.93
12358;BME280;6243;51.244;6.774;2023-04-25T03:49:25;151884.75;;;17.52;52.11
12358;BME280;6243;51.244;6.774;2023-04-25T03:51:50;151892.38;;;17.55;52.21
12358;BME280;6243;51.244;6.774;2023-04-25T03:54:17;151911.56;;;17.62;51.98
12358;BME280;6243;51.244;6.774;2023-04-25T03:56:42;151810.53;;;17.23;52.87
12358;BME280;6243;51.244;6.774;2023-04-25T03:59:08;151861.69;;;17.43;52.54
12358;BME280;6243;51.244;6.774;2023-04-25T04:01:33;151839.94;;;17.34;52.77
12358;BME280;6243;51.244;6.774;2023-04-25T04:03:59;151834.81;;;17.32;52.59
12358;BME280;6243;51.244;6.774;2023-04-25T04:06:24;151815.69;;;17.25;52.66
12358;BME280;6243;51.244;6.774;2023-04-25T04:08:50;151921.78;;;17.66;52.09
12358;BME280;6243;51.244;6.774;2023-04-25T04:11:17;151955.06;;;17.80;51.74
12358;BME280;6243;51.244;6.774;2023-04-25T04:13:42;151926.91;;;17.68;51.79
12358;BME280;6243;51.244;6.774;2023-04-25T04:16:08;151930.75;;;17.70;51.93
12358;BME280;6243;51.244;6.774;2023-04-25T04:18:34;151910.28;;;17.62;51.96
12358;BME280;6243;51.244;6.774;2023-04-25T04:20:59;151903.88;;;17.59;52.34
12358;BME280;6243;51.244;6.774;2023-04-25T04:23:25;151887.28;;;17.53;52.17
12358;BME280;6243;51.244;6.774;2023-04-25T04:25:50;151882.16;;;17.51;52.54
12358;BME280;6243;51.244;6.774;2023-04-25T04:28:17;151868.09;;;17.45;52.62
12358;BME280;6243;51.244;6.774;2023-04-25T04:30:42;151845.09;;;17.36;52.71
12358;BME280;6243;51.244;6.774;2023-04-25T04:33:08;151860.41;;;17.42;52.50
12358;BME280;6243;51.244;6.774;2023-04-25T04:35:34;151842.50;;;17.35;52.50
12358;BME280;6243;51.244;6.774;2023-04-25T04:37:59;151808.00;;;17.22;52.93
12358;BME280;6243;51.244;6.774;2023-04-25T04:40:25;151828.44;;;17.30;52.82
12358;BME280;6243;51.244;6.774;2023-04-25T04:42:51;151846.31;;;17.37;52.50
12358;BME280;6243;51.244;6.774;2023-04-25T04:45:18;151829.72;;;17.30;52.41
12358;BME280;6243;51.244;6.774;2023-04-25T04:47:43;151781.19;;;17.11;52.90
12358;BME280;6243;51.244;6.774;2023-04-25T04:50:10;151797.78;;;17.18;52.95
12358;BME280;6243;51.244;6.774;2023-04-25T04:52:36;151797.78;;;17.18;53.15
12358;BME280;6243;51.244;6.774;2023-04-25T04:55:05;151819.50;;;17.26;52.62
12358;BME280;6243;51.244;6.774;2023-04-25T04:57:30;151827.19;;;17.29;52.68
12358;BME280;6243;51.244;6.774;2023-04-25T04:59:56;151845.09;;;17.36;52.49
12358;BME280;6243;51.244;6.774;2023-04-25T05:02:23;151856.59;;;17.41;52.50
12358;BME280;6243;51.244;6.774;2023-04-25T05:04:49;151822.03;;;17.27;52.51
12358;BME280;6243;51.244;6.774;2023-04-25T05:07:14;151824.63;;;17.28;52.64
12358;BME280;6243;51.244;6.774;2023-04-25T05:09:40;151804.19;;;17.20;53.02
12358;BME280;6243;51.244;6.774;2023-04-25T05:12:05;151828.44;;;17.30;52.71
12358;BME280;6243;51.244;6.774;2023-04-25T05:14:31;151829.72;;;17.30;52.80
12358;BME280;6243;51.244;6.774;2023-04-25T05:16:56;151875.72;;;17.48;52.52
12358;BME280;6243;51.244;6.774;2023-04-25T05:19:23;151882.16;;;17.51;52.67
12358;BME280;6243;51.244;6.774;2023-04-25T05:21:49;151884.75;;;17.52;52.60
12358;BME280;6243;51.244;6.774;2023-04-25T05:24:14;151925.66;;;17.68;52.17
12358;BME280;6243;51.244;6.774;2023-04-25T05:26:40;151892.38;;;17.55;52.64
12358;BME280;6243;51.244;6.774;2023-04-25T05:29:05;151879.59;;;17.50;52.52
12358;BME280;6243;51.244;6.774;2023-04-25T05:31:31;151888.56;;;17.53;52.47
12358;BME280;6243;51.244;6.774;2023-04-25T05:33:57;151911.56;;;17.62;52.39
12358;BME280;6243;51.244;6.774;2023-04-25T05:36:24;151907.75;;;17.61;52.42
12358;BME280;6243;51.244;6.774;2023-04-25T05:38:49;151949.91;;;17.78;52.00
12358;BME280;6243;51.244;6.774;2023-04-25T05:41:15;151980.59;;;17.90;51.91
12358;BME280;6243;51.244;6.774;2023-04-25T05:43:40;151989.56;;;17.93;51.98
12358;BME280;6243;51.244;6.774;2023-04-25T05:46:06;151993.38;;;17.95;52.49
12358;BME280;6243;51.244;6.774;2023-04-25T05:48:31;151990.81;;;17.94;52.25
12358;BME280;6243;51.244;6.774;2023-04-25T05:50:57;152026.63;;;18.08;51.91
12358;BME280;6243;51.244;6.774;2023-04-25T05:53:24;152038.13;;;18.12;51.85
12358;BME280;6243;51.244;6.774;2023-04-25T05:55:49;152076.53;;;18.27;51.34
12358;BME280;6243;51.244;6.774;2023-04-25T05:58:15;152119.97;;;18.44;50.92
12358;BME280;6243;51.244;6.774;2023-04-25T06:00:40;152079.06;;;18.28;51.20
12358;BME280;6243;51.244;6.774;2023-04-25T06:03:06;152111.03;;;18.41;50.87
12358;BME280;6243;51.244;6.774;2023-04-25T06:05:31;152104.66;;;18.38;50.64
12358;BME280;6243;51.244;6.774;2023-04-25T06:07:57;152139.22;;;18.52;50.70
12358;BME280;6243;51.244;6.774;2023-04-25T06:10:24;152173.75;;;18.66;50.58
12358;BME280;6243;51.244;6.774;2023-04-25T06:12:49;152182.69;;;18.69;50.44
12358;BME280;6243;51.244;6.774;2023-04-25T06:15:15;152172.47;;;18.65;50.02
12358;BME280;6243;51.244;6.774;2023-04-25T06:17:40;152221.09;;;18.84;49.29
12358;BME280;6243;51.244;6.774;2023-04-25T06:20:07;152224.94;;;18.86;49.49
12358;BME280;6243;51.244;6.774;2023-04-25T06:22:33;152219.81;;;18.84;49.46
12358;BME280;6243;51.244;6.774;2023-04-25T06:24:58;152230.03;;;18.88;49.70
12358;BME280;6243;51.244;6.774;2023-04-25T06:27:25;152241.56;;;18.92;49.30
12358;BME280;6243;51.244;6.774;2023-04-25T06:29:51;152237.72;;;18.91;49.14
12358;BME280;6243;51.244;6.774;2023-04-25T06:32:16;152270.97;;;19.04;48.98
12358;BME280;6243;51.244;6.774;2023-04-25T06:34:42;152313.22;;;19.21;48.53
12358;BME280;6243;51.244;6.774;2023-04-25T06:37:07;152320.88;;;19.24;48.70
12358;BME280;6243;51.244;6.774;2023-04-25T06:39:33;152337.56;;;19.30;48.06
12358;BME280;6243;51.244;6.774;2023-04-25T06:41:58;152386.22;;;19.49;48.31
12358;BME280;6243;51.244;6.774;2023-04-25T06:44:25;152343.91;;;19.33;48.41
12358;BME280;6243;51.244;6.774;2023-04-25T06:46:51;152384.91;;;19.49;48.30
12358;BME280;6243;51.244;6.774;2023-04-25T06:49:16;152230.03;;;18.88;49.09
12358;BME280;6243;51.244;6.774;2023-04-25T06:51:42;152333.69;;;19.29;48.43
12358;BME280;6243;51.244;6.774;2023-04-25T06:54:07;152392.63;;;19.52;47.71
12358;BME280;6243;51.244;6.774;2023-04-25T06:56:33;152433.56;;;19.68;47.78
12358;BME280;6243;51.244;6.774;2023-04-25T06:58:58;152496.31;;;19.93;47.18
12358;BME280;6243;51.244;6.774;2023-04-25T07:01:25;152514.25;;;20.00;47.26
12358;BME280;6243;51.244;6.774;2023-04-25T07:03:51;152423.34;;;19.64;47.68
12358;BME280;6243;51.244;6.774;2023-04-25T07:06:16;152510.41;;;19.98;46.87
12358;BME280;6243;51.244;6.774;2023-04-25T07:08:41;152562.91;;;20.19;47.15
12358;BME280;6243;51.244;6.774;2023-04-25T07:11:07;152566.75;;;20.20;46.98
12358;BME280;6243;51.244;6.774;2023-04-25T07:13:32;152609.06;;;20.37;46.56
12358;BME280;6243;51.244;6.774;2023-04-25T07:15:59;152596.25;;;20.32;45.92
12358;BME280;6243;51.244;6.774;2023-04-25T07:18:26;152633.41;;;20.46;45.71
12358;BME280;6243;51.244;6.774;2023-04-25T07:20:51;152714.13;;;20.78;45.53
12358;BME280;6243;51.244;6.774;2023-04-25T07:23:17;152665.41;;;20.59;45.39
12358;BME280;6243;51.244;6.774;2023-04-25T07:25:42;152702.59;;;20.74;45.18
12358;BME280;6243;51.244;6.774;2023-04-25T07:28:08;152779.47;;;21.04;45.13
12358;BME280;6243;51.244;6.774;2023-04-25T07:30:33;152783.34;;;21.05;45.06
12358;BME280;6243;51.244;6.774;2023-04-25T07:32:59;152732.06;;;20.85;44.28
12358;BME280;6243;51.244;6.774;2023-04-25T07:35:25;152773.06;;;21.01;43.95
12358;BME280;6243;51.244;6.774;2023-04-25T07:37:51;152816.66;;;21.18;43.84
12358;BME280;6243;51.244;6.774;2023-04-25T07:40:17;152871.81;;;21.40;43.12
12358;BME280;6243;51.244;6.774;2023-04-25T07:42:42;152843.56;;;21.29;43.16
12358;BME280;6243;51.244;6.774;2023-04-25T07:45:08;152866.63;;;21.38;43.93
12358;BME280;6243;51.244;6.774;2023-04-25T07:47:34;152846.16;;;21.30;43.66
12358;BME280;6243;51.244;6.774;2023-04-25T07:49:59;152830.78;;;21.24;43.54
12358;BME280;6243;51.244;6.774;2023-04-25T07:52:26;152847.44;;;21.31;43.82
12358;BME280;6243;51.244;6.774;2023-04-25T07:54:52;152791.00;;;21.08;44.17
12358;BME280;6243;51.244;6.774;2023-04-25T07:57:17;152785.91;;;21.06;43.77
12358;BME280;6243;51.244;6.774;2023-04-25T07:59:43;152839.72;;;21.28;43.51
12358;BME280;6243;51.244;6.774;2023-04-25T08:02:08;152884.59;;;21.45;43.03
12358;BME280;6243;51.244;6.774;2023-04-25T08:04:34;152855.09;;;21.34;42.96
12358;BME280;6243;51.244;6.774;2023-04-25T08:06:59;152889.69;;;21.47;42.62
12358;BME280;6243;51.244;6.774;2023-04-25T08:09:26;152838.44;;;21.27;43.25
12358;BME280;6243;51.244;6.774;2023-04-25T08:11:52;152861.50;;;21.36;43.02
12358;BME280;6243;51.244;6.774;2023-04-25T08:14:17;152878.16;;;21.43;42.87
12358;BME280;6243;51.244;6.774;2023-04-25T08:16:43;152902.53;;;21.52;42.96
12358;BME280;6243;51.244;6.774;2023-04-25T08:19:09;152926.91;;;21.62;42.74
12358;BME280;6243;51.244;6.774;2023-04-25T08:21:34;152956.38;;;21.73;42.52
12358;BME280;6243;51.244;6.774;2023-04-25T08:24:00;152938.44;;;21.66;42.26
12358;BME280;6243;51.244;6.774;2023-04-25T08:26:27;152944.84;;;21.69;42.76
12358;BME280;6243;51.244;6.774;2023-04-25T08:28:53;152976.88;;;21.81;43.10
12358;BME280;6243;51.244;6.774;2023-04-25T08:31:19;153023.09;;;22.00;42.43
12358;BME280;6243;51.244;6.774;2023-04-25T08:33:44;153053.88;;;22.12;42.29
12358;BME280;6243;51.244;6.774;2023-04-25T08:36:09;153051.34;;;22.11;42.19
12358;BME280;6243;51.244;6.774;2023-04-25T08:38:35;153061.59;;;22.15;40.96
12358;BME280;6243;51.244;6.774;2023-04-25T08:41:00;153121.84;;;22.38;41.49
12358;BME280;6243;51.244;6.774;2023-04-25T08:43:29;153088.50;;;22.25;40.73
12358;BME280;6243;51.244;6.774;2023-04-25T08:45:58;153146.22;;;22.48;40.87
12358;BME280;6243;51.244;6.774;2023-04-25T08:48:26;153206.59;;;22.72;40.32
12358;BME280;6243;51.244;6.774;2023-04-25T08:50:53;153234.81;;;22.83;39.42
12358;BME280;6243;51.244;6.774;2023-04-25T08:53:22;153248.94;;;22.88;38.32
12358;BME280;6243;51.244;6.774;2023-04-25T08:55:50;153381.19;;;23.40;39.65
12358;BME280;6243;51.244;6.774;2023-04-25T08:58:18;153400.44;;;23.48;39.31
12358;BME280;6243;51.244;6.774;2023-04-25T09:00:46;153283.59;;;23.02;38.87
12358;BME280;6243;51.244;6.774;2023-04-25T09:03:11;153369.63;;;23.36;39.04
12358;BME280;6243;51.244;6.774;2023-04-25T09:05:37;153361.84;;;23.33;38.80
12358;BME280;6243;51.244;6.774;2023-04-25T09:08:02;153103.94;;;22.31;38.04
12358;BME280;6243;51.244;6.774;2023-04-25T09:10:28;153085.97;;;22.24;38.01
12358;BME280;6243;51.244;6.774;2023-04-25T09:13:03;153264.34;;;22.94;38.48
12358;BME280;6243;51.244;6.774;2023-04-25T09:15:29;153287.44;;;23.03;38.29
12358;BME280;6243;51.244;6.774;2023-04-25T09:17:57;153246.38;;;22.87;38.15
12358;BME280;6243;51.244;6.774;2023-04-25T09:20:22;153236.09;;;22.83;38.56
12358;BME280;6243;51.244;6.774;2023-04-25T09:22:48;153239.94;;;22.85;38.36
12358;BME280;6243;51.244;6.774;2023-04-25T09:25:13;153017.97;;;21.98;39.50
12358;BME280;6243;51.244;6.774;2023-04-25T09:27:49;153334.91;;;23.22;39.75
12358;BME280;6243;51.244;6.774;2023-04-25T09:30:15;153377.34;;;23.39;38.71
12358;BME280;6243;51.244;6.774;2023-04-25T09:32:43;153381.19;;;23.40;38.53
12358;BME280;6243;51.244;6.774;2023-04-25T09:35:10;153404.28;;;23.49;36.79
12358;BME280;6243;51.244;6.774;2023-04-25T09:37:35;153451.78;;;23.68;36.78
12358;BME280;6243;51.244;6.774;2023-04-25T09:40:05;153408.13;;;23.51;36.57
12358;BME280;6243;51.244;6.774;2023-04-25T09:42:31;153486.47;;;23.81;37.57
12358;BME280;6243;51.244;6.774;2023-04-25T09:44:58;153451.78;;;23.68;37.68
12358;BME280;6243;51.244;6.774;2023-04-25T09:47:25;153440.25;;;23.63;38.61
12358;BME280;6243;51.244;6.774;2023-04-25T09:49:52;153564.81;;;24.12;37.97
12358;BME280;6243;51.244;6.774;2023-04-25T09:52:20;153417.13;;;23.54;36.86
12358;BME280;6243;51.244;6.774;2023-04-25T09:54:47;153408.13;;;23.51;37.12
12358;BME280;6243;51.244;6.774;2023-04-25T09:57:14;153415.84;;;23.54;36.96
12358;BME280;6243;51.244;6.774;2023-04-25T09:59:43;153404.28;;;23.49;37.13
12358;BME280;6243;51.244;6.774;2023-04-25T10:02:10;153346.47;;;23.26;36.64
12358;BME280;6243;51.244;6.774;2023-04-25T10:04:37;153396.56;;;23.46;37.72
12358;BME280;6243;51.244;6.774;2023-04-25T10:07:06;153397.84;;;23.47;36.76
12358;BME280;6243;51.244;6.774;2023-04-25T10:09:33;153438.94;;;23.63;37.22
12358;BME280;6243;51.244;6.774;2023-04-25T10:12:02;153404.28;;;23.49;36.75
12358;BME280;6243;51.244;6.774;2023-04-25T10:14:29;153374.75;;;23.38;37.02
12358;BME280;6243;51.244;6.774;2023-04-25T10:16:55;153334.91;;;23.22;36.20
12358;BME280;6243;51.244;6.774;2023-04-25T10:19:21;153218.13;;;22.76;36.90
12358;BME280;6243;51.244;6.774;2023-04-25T10:21:51;153164.19;;;22.55;37.35
12358;BME280;6243;51.244;6.774;2023-04-25T10:24:17;153215.56;;;22.75;36.81
12358;BME280;6243;51.244;6.774;2023-04-25T10:26:46;153290.00;;;23.04;36.99
12358;BME280;6243;51.244;6.774;2023-04-25T10:29:11;153302.81;;;23.09;36.62
12358;BME280;6243;51.244;6.774;2023-04-25T10:31:45;153305.41;;;23.10;36.69
12358;BME280;6243;51.244;6.774;2023-04-25T10:34:11;153272.03;;;22.97;36.39
12358;BME280;6243;51.244;6.774;2023-04-25T10:36:36;153206.59;;;22.72;35.91
12358;BME280;6243;51.244;6.774;2023-04-25T10:39:04;153191.22;;;22.66;36.82
12358;BME280;6243;51.244;6.774;2023-04-25T10:41:30;153169.31;;;22.57;36.70
12358;BME280;6243;51.244;6.774;2023-04-25T10:44:00;153178.38;;;22.61;37.01
12358;BME280;6243;51.244;6.774;2023-04-25T10:46:26;153174.44;;;22.59;36.59
12358;BME280;6243;51.244;6.774;2023-04-25T10:48:53;153173.19;;;22.58;35.99
12358;BME280;6243;51.244;6.774;2023-04-25T10:51:22;153292.56;;;23.05;37.01
12358;BME280;6243;51.244;6.774;2023-04-25T10:53:57;153342.63;;;23.25;35.71
12358;BME280;6243;51.244;6.774;2023-04-25T10:56:25;153342.63;;;23.25;34.46
12358;BME280;6243;51.244;6.774;2023-04-25T10:58:50;153329.78;;;23.20;35.13
12358;BME280;6243;51.244;6.774;2023-04-25T11:01:21;153368.31;;;23.35;34.00
12358;BME280;6243;51.244;6.774;2023-04-25T11:03:57;153395.28;;;23.46;34.64
12358;BME280;6243;51.244;6.774;2023-04-25T11:06:31;153370.91;;;23.36;34.34
12358;BME280;6243;51.244;6.774;2023-04-25T11:09:01;153456.91;;;23.70;34.86
12358;BME280;6243;51.244;6.774;2023-04-25T11:11:28;153476.19;;;23.77;35.26
12358;BME280;6243;51.244;6.774;2023-04-25T11:13:54;153468.47;;;23.74;35.27
12358;BME280;6243;51.244;6.774;2023-04-25T11:16:23;153482.56;;;23.80;34.45
12358;BME280;6243;51.244;6.774;2023-04-25T11:18:49;153512.13;;;23.91;35.64
12358;BME280;6243;51.244;6.774;2023-04-25T11:21:15;153471.03;;;23.75;35.15
12358;BME280;6243;51.244;6.774;2023-04-25T11:23:44;153455.63;;;23.69;34.22
12358;BME280;6243;51.244;6.774;2023-04-25T11:26:09;153436.34;;;23.62;34.66
12358;BME280;6243;51.244;6.774;2023-04-25T11:28:35;153458.22;;;23.70;34.58
12358;BME280;6243;51.244;6.774;2023-04-25T11:31:02;153549.41;;;24.06;34.87
12358;BME280;6243;51.244;6.774;2023-04-25T11:33:29;153567.41;;;24.13;34.79
12358;BME280;6243;51.244;6.774;2023-04-25T11:35:55;153537.81;;;24.02;35.34
12358;BME280;6243;51.244;6.774;2023-04-25T11:38:21;153616.22;;;24.32;35.01
12358;BME280;6243;51.244;6.774;2023-04-25T11:40:49;153667.59;;;24.52;34.81
12358;BME280;6243;51.244;6.774;2023-04-25T11:43:15;153685.59;;;24.59;35.38
12358;BME280;6243;51.244;6.774;2023-04-25T11:45:41;153722.81;;;24.74;34.98
12358;BME280;6243;51.244;6.774;2023-04-25T11:48:06;153712.56;;;24.70;33.85
12358;BME280;6243;51.244;6.774;2023-04-25T11:50:33;153915.72;;;25.50;34.17
12358;BME280;6243;51.244;6.774;2023-04-25T11:52:59;153958.16;;;25.66;34.15
12358;BME280;6243;51.244;6.774;2023-04-25T11:55:25;153995.41;;;25.81;34.41
12358;BME280;6243;51.244;6.774;2023-04-25T11:57:50;153928.56;;;25.55;33.21
12358;BME280;6243;51.244;6.774;2023-04-25T12:00:17;153919.53;;;25.51;33.96
12358;BME280;6243;51.244;6.774;2023-04-25T12:02:44;153896.34;;;25.42;33.58
12358;BME280;6243;51.244;6.774;2023-04-25T12:05:10;153870.69;;;25.32;33.67
12358;BME280;6243;51.244;6.774;2023-04-25T12:07:37;153792.25;;;25.01;33.91
12358;BME280;6243;51.244;6.774;2023-04-25T12:10:06;153817.97;;;25.11;33.98
12358;BME280;6243;51.244;6.774;2023-04-25T12:12:32;153806.41;;;25.07;33.49
12358;BME280;6243;51.244;6.774;2023-04-25T12:15:08;153770.44;;;24.93;33.89
12358;BME280;6243;51.244;6.774;2023-04-25T12:17:34;153618.78;;;24.33;35.19
12358;BME280;6243;51.244;6.774;2023-04-25T12:19:59;153675.28;;;24.55;35.62
12358;BME280;6243;51.244;6.774;2023-04-25T12:22:25;153644.47;;;24.43;36.10
12358;BME280;6243;51.244;6.774;2023-04-25T12:24:52;153600.78;;;24.26;37.16
12358;BME280;6243;51.244;6.774;2023-04-25T12:27:17;153524.97;;;23.96;36.95
12358;BME280;6243;51.244;6.774;2023-04-25T12:29:50;153498.00;;;23.86;37.30
12358;BME280;6243;51.244;6.774;2023-04-25T12:32:16;153462.06;;;23.72;38.27
12358;BME280;6243;51.244;6.774;2023-04-25T12:34:42;153498.00;;;23.86;38.38
12358;BME280;6243;51.244;6.774;2023-04-25T12:37:07;153456.91;;;23.70;37.04
12358;BME280;6243;51.244;6.774;2023-04-25T12:39:33;153510.88;;;23.91;37.36
12358;BME280;6243;51.244;6.774;2023-04-25T12:42:00;153533.97;;;24.00;37.22
12358;BME280;6243;51.244;6.774;2023-04-25T12:44:25;153528.84;;;23.98;37.77
12358;BME280;6243;51.244;6.774;2023-04-25T12:46:51;153641.91;;;24.42;37.21
12358;BME280;6243;51.244;6.774;2023-04-25T12:49:16;153686.84;;;24.60;36.62
12358;BME280;6243;51.244;6.774;2023-04-25T12:51:42;153699.69;;;24.65;36.03
12358;BME280;6243;51.244;6.774;2023-04-25T12:54:07;153707.44;;;24.68;36.35